Airfield :
LOGIN :

Register | Disclaimer

   EN    FR    IT 

 










Legend :    VFR   Marginal VFR   IFR   Intensive IFR   Very Intensive IFR
Visi :
Ceiling :
>= 8 km
>= 3000ft
5 to 8 km
1000 to 3000 ft
1500m to 5 km
500 to 1000 ft
800 to 1500m
200 to 500 ft
< 800m
< 200 ft
Symbols :   Thunderstorms  Fog  Heavy snow  Heavy precipitations  Wind > 20 kt
SIGMETs :     Misc.  Thunderstorms  Icing  Turbulence  Mountain Waves  Volcanic Ashes






- Airport Elevation : 609 ft
- IATA code : BJZ


LEBZ - Badajoz

CURRENT METAR :
  • 071900Z 17001KT CAVOK 25/10 Q1016

EXPIRED METARs :
  • 071830Z 16002KT CAVOK 26/10 Q1016
  • 071800Z 13005KT CAVOK 27/10 Q1016
  • 071730Z 13004KT CAVOK 29/10 Q1016
  • 071700Z 09005KT CAVOK 29/10 Q1016

TAF TAF LEBZ
Valid from the 07 at 15:00 until the 08 at 15:00 UTC


071400Z 0715/0815 VRB02KT CAVOK TX31/0715Z TN17/0806Z
BECMG 0808/0810 08010KT



MET'MAP, your aeronautical weather chart ! - Copyright ORBIFLY December 2007 - Disclaimer

ORBIFLY MET'MAP TEAM :

Programming & Development : Alexandra Zaïnal
Original concept : Baudouin d'Aumeries
Technical & hardware support : Manuel Goepfert
Assistance : Marc-Olivier Méhu




SOURCES & CREDITS :

   NOAA